sensor_id;sensor_type;location;lat;lon;timestamp;temperature;humidity
41987;DHT22;28361;50.740;7.084;2023-05-14T00:06:17;16.00;99.90
41987;DHT22;28361;50.740;7.084;2023-05-14T00:08:43;12.00;99.90
41987;DHT22;28361;50.740;7.084;2023-05-14T00:11:08;11.90;99.90
41987;DHT22;28361;50.740;7.084;2023-05-14T00:13:34;11.90;99.90
41987;DHT22;28361;50.740;7.084;2023-05-14T00:16:00;11.90;99.90
41987;DHT22;28361;50.740;7.084;2023-05-14T00:18:26;11.80;99.90
41987;DHT22;28361;50.740;7.084;2023-05-14T00:20:52;11.80;99.90
41987;DHT22;28361;50.740;7.084;2023-05-14T00:23:20;11.80;99.90
41987;DHT22;28361;50.740;7.084;2023-05-14T00:25:45;11.70;99.90
41987;DHT22;28361;50.740;7.084;2023-05-14T00:28:11;11.70;99.90
41987;DHT22;28361;50.740;7.084;2023-05-14T00:30:37;11.70;99.90
41987;DHT22;28361;50.740;7.084;2023-05-14T00:33:04;11.60;99.90
41987;DHT22;28361;50.740;7.084;2023-05-14T00:35:30;11.50;99.90
41987;DHT22;28361;50.740;7.084;2023-05-14T00:37:55;11.60;99.90
41987;DHT22;28361;50.740;7.084;2023-05-14T00:40:25;11.50;99.90
41987;DHT22;28361;50.740;7.084;2023-05-14T00:42:51;11.50;99.90
41987;DHT22;28361;50.740;7.084;2023-05-14T00:45:17;11.50;99.90
41987;DHT22;28361;50.740;7.084;2023-05-14T00:47:42;11.50;99.90
41987;DHT22;28361;50.740;7.084;2023-05-14T00:50:09;11.50;99.90
41987;DHT22;28361;50.740;7.084;2023-05-14T00:52:37;11.40;99.90
41987;DHT22;28361;50.740;7.084;2023-05-14T00:55:06;11.40;99.90
41987;DHT22;28361;50.740;7.084;2023-05-14T00:57:33;11.30;99.90
41987;DHT22;28361;50.740;7.084;2023-05-14T00:59:59;11.30;99.90
41987;DHT22;28361;50.740;7.084;2023-05-14T01:02:25;11.30;99.90
41987;DHT22;28361;50.740;7.084;2023-05-14T01:04:51;11.40;99.90
41987;DHT22;28361;50.740;7.084;2023-05-14T01:10:50;11.30;99.90
41987;DHT22;28361;50.740;7.084;2023-05-14T01:13:32;11.30;99.90
41987;DHT22;28361;50.740;7.084;2023-05-14T01:16:02;11.30;99.90
41987;DHT22;28361;50.740;7.084;2023-05-14T01:18:29;11.20;99.90
41987;DHT22;28361;50.740;7.084;2023-05-14T01:20:56;11.30;99.90
41987;DHT22;28361;50.740;7.084;2023-05-14T01:23:22;11.30;99.90
41987;DHT22;28361;50.740;7.084;2023-05-14T01:25:47;11.20;99.90
41987;DHT22;28361;50.740;7.084;2023-05-14T01:28:27;11.20;99.90
41987;DHT22;28361;50.740;7.084;2023-05-14T01:31:17;11.30;99.90
41987;DHT22;28361;50.740;7.084;2023-05-14T01:33:45;11.20;99.90
41987;DHT22;28361;50.740;7.084;2023-05-14T01:36:12;11.20;99.90
41987;DHT22;28361;50.740;7.084;2023-05-14T01:38:38;11.10;99.90
41987;DHT22;28361;50.740;7.084;2023-05-14T01:41:04;11.20;99.90
41987;DHT22;28361;50.740;7.084;2023-05-14T01:43:30;11.10;99.90
41987;DHT22;28361;50.740;7.084;2023-05-14T01:45:56;11.10;99.90
41987;DHT22;28361;50.740;7.084;2023-05-14T01:48:22;11.10;99.90
41987;DHT22;28361;50.740;7.084;2023-05-14T01:50:47;11.10;99.90
41987;DHT22;28361;50.740;7.084;2023-05-14T01:53:13;11.00;99.90
41987;DHT22;28361;50.740;7.084;2023-05-14T01:55:39;11.00;99.90
41987;DHT22;28361;50.740;7.084;2023-05-14T01:58:04;10.90;99.90
41987;DHT22;28361;50.740;7.084;2023-05-14T08:20:41;10.90;99.90
41987;DHT22;28361;50.740;7.084;2023-05-14T08:23:07;20.40;1.00
41987;DHT22;28361;50.740;7.084;2023-05-14T08:25:33;20.50;1.00
41987;DHT22;28361;50.740;7.084;2023-05-14T08:27:59;19.60;1.00
41987;DHT22;28361;50.740;7.084;2023-05-14T08:30:26;19.20;1.00
41987;DHT22;28361;50.740;7.084;2023-05-14T10:23:39;19.70;1.00
41987;DHT22;28361;50.740;7.084;2023-05-14T10:26:07;25.40;1.00
41987;DHT22;28361;50.740;7.084;2023-05-14T10:28:33;24.20;1.00
41987;DHT22;28361;50.740;7.084;2023-05-14T10:30:59;24.30;1.00
41987;DHT22;28361;50.740;7.084;2023-05-14T10:33:25;24.10;1.00
41987;DHT22;28361;50.740;7.084;2023-05-14T10:36:04;24.80;1.00
41987;DHT22;28361;50.740;7.084;2023-05-14T10:38:37;24.60;1.00
41987;DHT22;28361;50.740;7.084;2023-05-14T10:41:13;24.10;1.00
41987;DHT22;28361;50.740;7.084;2023-05-14T10:43:42;24.20;1.00
41987;DHT22;28361;50.740;7.084;2023-05-14T10:46:10;24.70;1.00
41987;DHT22;28361;50.740;7.084;2023-05-14T10:48:38;25.30;1.00
41987;DHT22;28361;50.740;7.084;2023-05-14T10:51:07;25.70;1.00
41987;DHT22;28361;50.740;7.084;2023-05-14T10:53:38;25.20;1.00
41987;DHT22;28361;50.740;7.084;2023-05-14T11:01:05;24.90;1.00
41987;DHT22;28361;50.740;7.084;2023-05-14T11:03:31;25.60;1.00
41987;DHT22;28361;50.740;7.084;2023-05-14T11:06:03;25.00;1.00
41987;DHT22;28361;50.740;7.084;2023-05-14T11:08:30;25.80;1.00
41987;DHT22;28361;50.740;7.084;2023-05-14T11:10:56;25.60;1.00
41987;DHT22;28361;50.740;7.084;2023-05-14T11:13:22;24.10;1.00
41987;DHT22;28361;50.740;7.084;2023-05-14T11:15:50;22.60;1.00
41987;DHT22;28361;50.740;7.084;2023-05-14T11:18:29;22.30;1.00
41987;DHT22;28361;50.740;7.084;2023-05-14T11:20:59;21.80;1.00
41987;DHT22;28361;50.740;7.084;2023-05-14T11:23:26;21.80;1.00
41987;DHT22;28361;50.740;7.084;2023-05-14T11:25:53;21.90;1.00
41987;DHT22;28361;50.740;7.084;2023-05-14T11:28:20;22.00;1.00
41987;DHT22;28361;50.740;7.084;2023-05-14T11:30:47;21.80;1.00
41987;DHT22;28361;50.740;7.084;2023-05-14T11:33:13;21.70;1.00
41987;DHT22;28361;50.740;7.084;2023-05-14T11:35:39;21.40;1.00
41987;DHT22;28361;50.740;7.084;2023-05-14T11:38:16;21.10;1.00
41987;DHT22;28361;50.740;7.084;2023-05-14T11:40:49;20.90;1.00
41987;DHT22;28361;50.740;7.084;2023-05-14T11:43:16;21.00;1.00
41987;DHT22;28361;50.740;7.084;2023-05-14T11:45:42;20.90;1.00
41987;DHT22;28361;50.740;7.084;2023-05-14T11:48:11;20.90;1.00
41987;DHT22;28361;50.740;7.084;2023-05-14T11:50:39;21.10;1.00
41987;DHT22;28361;50.740;7.084;2023-05-14T11:53:05;21.20;1.00
41987;DHT22;28361;50.740;7.084;2023-05-14T11:55:33;21.20;1.00
41987;DHT22;28361;50.740;7.084;2023-05-14T11:58:00;21.30;1.00
41987;DHT22;28361;50.740;7.084;2023-05-14T12:00:26;21.20;1.00
41987;DHT22;28361;50.740;7.084;2023-05-14T12:02:52;21.10;1.00
41987;DHT22;28361;50.740;7.084;2023-05-14T12:05:19;21.10;1.00
41987;DHT22;28361;50.740;7.084;2023-05-14T12:07:46;21.30;1.00
41987;DHT22;28361;50.740;7.084;2023-05-14T12:10:11;21.40;1.00
41987;DHT22;28361;50.740;7.084;2023-05-14T12:12:38;22.10;1.00
41987;DHT22;28361;50.740;7.084;2023-05-14T12:15:13;23.00;1.00
41987;DHT22;28361;50.740;7.084;2023-05-14T12:17:40;23.50;1.00
41987;DHT22;28361;50.740;7.084;2023-05-14T12:20:09;23.40;1.00
41987;DHT22;28361;50.740;7.084;2023-05-14T12:22:35;23.10;1.00
41987;DHT22;28361;50.740;7.084;2023-05-14T12:25:01;23.00;1.00
41987;DHT22;28361;50.740;7.084;2023-05-14T12:27:27;23.30;1.00
41987;DHT22;28361;50.740;7.084;2023-05-14T12:30:05;24.00;1.00
41987;DHT22;28361;50.740;7.084;2023-05-14T12:32:31;23.80;1.00
41987;DHT22;28361;50.740;7.084;2023-05-14T12:34:58;24.60;1.00
41987;DHT22;28361;50.740;7.084;2023-05-14T12:37:23;24.50;1.00
41987;DHT22;28361;50.740;7.084;2023-05-14T12:39:49;24.40;1.00
41987;DHT22;28361;50.740;7.084;2023-05-14T12:42:14;24.40;1.00
41987;DHT22;28361;50.740;7.084;2023-05-14T12:44:41;23.40;1.00
41987;DHT22;28361;50.740;7.084;2023-05-14T12:47:06;22.80;1.00
41987;DHT22;28361;50.740;7.084;2023-05-14T12:49:32;23.00;1.00
41987;DHT22;28361;50.740;7.084;2023-05-14T12:51:58;22.90;1.00
41987;DHT22;28361;50.740;7.084;2023-05-14T12:54:23;23.00;1.00
41987;DHT22;28361;50.740;7.084;2023-05-14T12:56:49;23.00;1.00
41987;DHT22;28361;50.740;7.084;2023-05-14T12:59:14;22.70;1.00
41987;DHT22;28361;50.740;7.084;2023-05-14T13:01:41;22.10;1.00
41987;DHT22;28361;50.740;7.084;2023-05-14T13:04:08;22.20;1.00
41987;DHT22;28361;50.740;7.084;2023-05-14T13:06:39;22.00;1.00
41987;DHT22;28361;50.740;7.084;2023-05-14T13:09:06;22.30;1.00
41987;DHT22;28361;50.740;7.084;2023-05-14T13:11:32;22.60;1.00
41987;DHT22;28361;50.740;7.084;2023-05-14T13:13:58;22.70;1.00
41987;DHT22;28361;50.740;7.084;2023-05-14T13:16:27;22.70;1.00
41987;DHT22;28361;50.740;7.084;2023-05-14T13:18:53;23.80;1.00
41987;DHT22;28361;50.740;7.084;2023-05-14T13:21:19;25.30;1.00
41987;DHT22;28361;50.740;7.084;2023-05-14T13:23:46;25.80;1.00
41987;DHT22;28361;50.740;7.084;2023-05-14T13:26:12;25.10;1.00
41987;DHT22;28361;50.740;7.084;2023-05-14T13:28:38;24.60;1.00
41987;DHT22;28361;50.740;7.084;2023-05-14T13:33:35;23.80;1.00
41987;DHT22;28361;50.740;7.084;2023-05-14T13:36:01;23.40;1.00
41987;DHT22;28361;50.740;7.084;2023-05-14T13:38:26;23.40;1.00
41987;DHT22;28361;50.740;7.084;2023-05-14T13:40:52;23.50;1.00
41987;DHT22;28361;50.740;7.084;2023-05-14T13:43:18;23.70;1.00
41987;DHT22;28361;50.740;7.084;2023-05-14T13:45:44;23.60;1.00
41987;DHT22;28361;50.740;7.084;2023-05-14T13:48:10;23.10;1.00
41987;DHT22;28361;50.740;7.084;2023-05-14T13:50:35;23.00;1.00
41987;DHT22;28361;50.740;7.084;2023-05-14T13:53:01;23.00;1.00
41987;DHT22;28361;50.740;7.084;2023-05-14T13:55:27;22.60;1.00
41987;DHT22;28361;50.740;7.084;2023-05-14T13:57:52;22.60;1.00
41987;DHT22;28361;50.740;7.084;2023-05-14T14:00:18;22.90;1.00
41987;DHT22;28361;50.740;7.084;2023-05-14T14:02:43;22.80;1.00
41987;DHT22;28361;50.740;7.084;2023-05-14T14:05:09;22.70;1.00
41987;DHT22;28361;50.740;7.084;2023-05-14T14:07:35;22.70;1.00
41987;DHT22;28361;50.740;7.084;2023-05-14T14:10:00;22.70;1.00
41987;DHT22;28361;50.740;7.084;2023-05-14T14:12:26;22.90;1.00
41987;DHT22;28361;50.740;7.084;2023-05-14T14:14:52;22.90;1.00
41987;DHT22;28361;50.740;7.084;2023-05-14T14:17:18;22.60;1.00
41987;DHT22;28361;50.740;7.084;2023-05-14T14:19:43;22.40;1.00
41987;DHT22;28361;50.740;7.084;2023-05-14T14:22:09;22.60;1.00
41987;DHT22;28361;50.740;7.084;2023-05-14T14:24:36;23.50;1.00
41987;DHT22;28361;50.740;7.084;2023-05-14T14:27:02;24.00;1.00
41987;DHT22;28361;50.740;7.084;2023-05-14T14:29:28;23.90;1.00
41987;DHT22;28361;50.740;7.084;2023-05-14T14:31:55;23.80;1.00
41987;DHT22;28361;50.740;7.084;2023-05-14T14:34:21;23.70;1.00
41987;DHT22;28361;50.740;7.084;2023-05-14T14:36:47;23.30;1.00
41987;DHT22;28361;50.740;7.084;2023-05-14T14:39:12;23.10;1.00
41987;DHT22;28361;50.740;7.084;2023-05-14T14:41:38;23.20;1.00
41987;DHT22;28361;50.740;7.084;2023-05-14T14:44:03;24.00;1.00
41987;DHT22;28361;50.740;7.084;2023-05-14T14:46:30;24.80;1.00
41987;DHT22;28361;50.740;7.084;2023-05-14T14:48:56;25.00;1.00
41987;DHT22;28361;50.740;7.084;2023-05-14T14:51:21;25.70;1.00
41987;DHT22;28361;50.740;7.084;2023-05-14T14:53:47;26.60;1.00
41987;DHT22;28361;50.740;7.084;2023-05-14T14:56:13;26.20;1.00
41987;DHT22;28361;50.740;7.084;2023-05-14T14:58:38;25.80;1.00
41987;DHT22;28361;50.740;7.084;2023-05-14T15:01:04;26.50;1.00
41987;DHT22;28361;50.740;7.084;2023-05-14T15:03:30;26.00;1.00
41987;DHT22;28361;50.740;7.084;2023-05-14T15:05:55;25.90;1.00
41987;DHT22;28361;50.740;7.084;2023-05-14T15:08:25;26.50;1.00
41987;DHT22;28361;50.740;7.084;2023-05-14T15:10:55;26.20;1.00
41987;DHT22;28361;50.740;7.084;2023-05-14T15:13:21;26.80;1.00
41987;DHT22;28361;50.740;7.084;2023-05-14T15:15:49;27.10;1.00
41987;DHT22;28361;50.740;7.084;2023-05-14T15:18:14;26.80;1.00
41987;DHT22;28361;50.740;7.084;2023-05-14T15:20:40;26.50;1.00
41987;DHT22;28361;50.740;7.084;2023-05-14T15:23:06;26.20;1.00
41987;DHT22;28361;50.740;7.084;2023-05-14T15:25:31;26.30;1.00
41987;DHT22;28361;50.740;7.084;2023-05-14T15:27:57;26.60;1.00
41987;DHT22;28361;50.740;7.084;2023-05-14T15:30:23;27.40;1.00
41987;DHT22;28361;50.740;7.084;2023-05-14T15:32:48;27.50;1.00
41987;DHT22;28361;50.740;7.084;2023-05-14T15:35:14;27.40;1.00
41987;DHT22;28361;50.740;7.084;2023-05-14T15:37:44;27.30;1.00
41987;DHT22;28361;50.740;7.084;2023-05-14T15:40:10;26.60;1.00
41987;DHT22;28361;50.740;7.084;2023-05-14T15:42:37;26.00;1.00
41987;DHT22;28361;50.740;7.084;2023-05-14T15:45:03;26.00;1.00
41987;DHT22;28361;50.740;7.084;2023-05-14T15:47:29;26.30;1.00
41987;DHT22;28361;50.740;7.084;2023-05-14T15:49:55;26.10;1.00
41987;DHT22;28361;50.740;7.084;2023-05-14T15:52:21;26.40;1.00
41987;DHT22;28361;50.740;7.084;2023-05-14T15:54:47;27.00;1.00
41987;DHT22;28361;50.740;7.084;2023-05-14T15:57:13;26.90;1.00
41987;DHT22;28361;50.740;7.084;2023-05-14T15:59:39;26.30;1.00
41987;DHT22;28361;50.740;7.084;2023-05-14T16:02:05;25.40;1.00
41987;DHT22;28361;50.740;7.084;2023-05-14T16:04:31;24.40;1.00
41987;DHT22;28361;50.740;7.084;2023-05-14T16:07:01;23.90;1.00
41987;DHT22;28361;50.740;7.084;2023-05-14T16:09:27;23.20;1.00
41987;DHT22;28361;50.740;7.084;2023-05-14T16:11:53;23.00;1.00
41987;DHT22;28361;50.740;7.084;2023-05-14T16:14:18;22.90;1.00
41987;DHT22;28361;50.740;7.084;2023-05-14T16:16:44;22.60;1.00
41987;DHT22;28361;50.740;7.084;2023-05-14T16:19:09;22.50;1.00
41987;DHT22;28361;50.740;7.084;2023-05-14T16:21:35;22.60;1.00
41987;DHT22;28361;50.740;7.084;2023-05-14T16:24:01;22.30;1.00
41987;DHT22;28361;50.740;7.084;2023-05-14T16:26:27;22.40;1.00
41987;DHT22;28361;50.740;7.084;2023-05-14T16:28:53;22.30;1.00
41987;DHT22;28361;50.740;7.084;2023-05-14T16:31:18;22.60;1.00
41987;DHT22;28361;50.740;7.084;2023-05-14T16:33:44;22.90;1.00
41987;DHT22;28361;50.740;7.084;2023-05-14T16:36:10;23.00;1.00
41987;DHT22;28361;50.740;7.084;2023-05-14T16:38:35;22.90;1.00
41987;DHT22;28361;50.740;7.084;2023-05-14T16:41:01;22.50;1.00
41987;DHT22;28361;50.740;7.084;2023-05-14T16:43:26;22.40;1.00
41987;DHT22;28361;50.740;7.084;2023-05-14T16:45:52;22.10;1.00
41987;DHT22;28361;50.740;7.084;2023-05-14T16:48:18;22.20;1.00
41987;DHT22;28361;50.740;7.084;2023-05-14T16:50:43;22.00;1.00
41987;DHT22;28361;50.740;7.084;2023-05-14T16:53:09;21.90;1.00
41987;DHT22;28361;50.740;7.084;2023-05-14T16:55:34;21.80;1.00
41987;DHT22;28361;50.740;7.084;2023-05-14T16:58:00;21.60;1.00
41987;DHT22;28361;50.740;7.084;2023-05-14T17:00:25;21.50;1.00
41987;DHT22;28361;50.740;7.084;2023-05-14T17:02:51;21.60;1.00
41987;DHT22;28361;50.740;7.084;2023-05-14T17:05:19;21.40;1.00
41987;DHT22;28361;50.740;7.084;2023-05-14T17:07:45;21.40;1.00
41987;DHT22;28361;50.740;7.084;2023-05-14T17:10:10;21.30;1.00
41987;DHT22;28361;50.740;7.084;2023-05-14T17:12:36;21.40;1.00
41987;DHT22;28361;50.740;7.084;2023-05-14T17:15:02;21.60;1.00
41987;DHT22;28361;50.740;7.084;2023-05-14T17:17:27;21.80;1.00
41987;DHT22;28361;50.740;7.084;2023-05-14T17:19:53;22.00;1.00
41987;DHT22;28361;50.740;7.084;2023-05-14T17:22:19;22.00;1.00
41987;DHT22;28361;50.740;7.084;2023-05-14T17:24:44;22.00;1.00
41987;DHT22;28361;50.740;7.084;2023-05-14T17:27:10;21.80;1.00
41987;DHT22;28361;50.740;7.084;2023-05-14T17:29:36;21.60;1.00
41987;DHT22;28361;50.740;7.084;2023-05-14T17:32:01;21.40;1.00
41987;DHT22;28361;50.740;7.084;2023-05-14T17:34:27;21.20;1.00
41987;DHT22;28361;50.740;7.084;2023-05-14T17:36:53;21.20;1.00
41987;DHT22;28361;50.740;7.084;2023-05-14T17:39:19;21.10;1.00
41987;DHT22;28361;50.740;7.084;2023-05-14T17:41:44;20.90;1.00
41987;DHT22;28361;50.740;7.084;2023-05-14T17:44:10;20.80;1.00
41987;DHT22;28361;50.740;7.084;2023-05-14T17:46:36;20.80;1.00
41987;DHT22;28361;50.740;7.084;2023-05-14T17:49:01;20.70;1.00
41987;DHT22;28361;50.740;7.084;2023-05-14T17:51:27;20.50;1.00
41987;DHT22;28361;50.740;7.084;2023-05-14T17:53:53;20.40;1.00
41987;DHT22;28361;50.740;7.084;2023-05-14T17:56:18;20.30;1.00
41987;DHT22;28361;50.740;7.084;2023-05-14T17:58:45;20.30;1.00
41987;DHT22;28361;50.740;7.084;2023-05-14T18:01:11;20.30;1.00
41987;DHT22;28361;50.740;7.084;2023-05-14T18:03:36;20.20;1.00
41987;DHT22;28361;50.740;7.084;2023-05-14T18:06:02;20.20;1.00
41987;DHT22;28361;50.740;7.084;2023-05-14T18:08:28;20.20;1.00
41987;DHT22;28361;50.740;7.084;2023-05-14T18:10:54;20.10;1.00
41987;DHT22;28361;50.740;7.084;2023-05-14T18:13:20;20.00;1.00
41987;DHT22;28361;50.740;7.084;2023-05-14T18:15:45;20.00;1.00
41987;DHT22;28361;50.740;7.084;2023-05-14T18:18:11;19.90;1.00
41987;DHT22;28361;50.740;7.084;2023-05-14T18:20:37;19.90;1.00
41987;DHT22;28361;50.740;7.084;2023-05-14T18:23:02;19.80;1.00
41987;DHT22;28361;50.740;7.084;2023-05-14T18:25:28;19.80;1.00
41987;DHT22;28361;50.740;7.084;2023-05-14T18:27:54;19.70;1.00
41987;DHT22;28361;50.740;7.084;2023-05-14T18:30:19;19.70;1.00
41987;DHT22;28361;50.740;7.084;2023-05-14T18:32:45;19.60;1.00
41987;DHT22;28361;50.740;7.084;2023-05-14T18:35:11;19.60;1.00
41987;DHT22;28361;50.740;7.084;2023-05-14T18:37:38;19.50;1.00
41987;DHT22;28361;50.740;7.084;2023-05-14T18:40:04;19.40;1.00
41987;DHT22;28361;50.740;7.084;2023-05-14T18:42:31;19.30;1.00
41987;DHT22;28361;50.740;7.084;2023-05-14T18:44:57;19.30;1.00
41987;DHT22;28361;50.740;7.084;2023-05-14T18:47:23;19.20;1.00
41987;DHT22;28361;50.740;7.084;2023-05-14T18:49:49;19.20;1.00
41987;DHT22;28361;50.740;7.084;2023-05-14T18:52:19;19.10;1.00
41987;DHT22;28361;50.740;7.084;2023-05-14T18:54:45;19.10;1.00
41987;DHT22;28361;50.740;7.084;2023-05-14T18:57:11;19.10;1.00
41987;DHT22;28361;50.740;7.084;2023-05-14T18:59:37;19.00;1.00
41987;DHT22;28361;50.740;7.084;2023-05-14T19:02:03;19.00;1.00
41987;DHT22;28361;50.740;7.084;2023-05-14T19:04:29;18.90;1.00
41987;DHT22;28361;50.740;7.084;2023-05-14T19:06:55;18.80;1.00
41987;DHT22;28361;50.740;7.084;2023-05-14T19:09:20;18.80;1.00
41987;DHT22;28361;50.740;7.084;2023-05-14T19:11:46;18.70;1.00
41987;DHT22;28361;50.740;7.084;2023-05-14T19:14:12;18.70;1.00
41987;DHT22;28361;50.740;7.084;2023-05-14T19:16:39;18.60;1.00
41987;DHT22;28361;50.740;7.084;2023-05-14T19:19:05;18.60;1.00
41987;DHT22;28361;50.740;7.084;2023-05-14T19:21:30;18.60;1.00
41987;DHT22;28361;50.740;7.084;2023-05-14T19:23:56;18.50;1.00
41987;DHT22;28361;50.740;7.084;2023-05-14T19:26:21;18.50;1.00
41987;DHT22;28361;50.740;7.084;2023-05-14T19:28:47;18.40;1.00
41987;DHT22;28361;50.740;7.084;2023-05-14T19:31:13;18.40;1.00
41987;DHT22;28361;50.740;7.084;2023-05-14T19:33:38;18.40;1.00
41987;DHT22;28361;50.740;7.084;2023-05-14T19:36:04;18.40;1.00
41987;DHT22;28361;50.740;7.084;2023-05-14T19:38:30;18.30;1.00
41987;DHT22;28361;50.740;7.084;2023-05-14T19:40:55;18.30;1.00
41987;DHT22;28361;50.740;7.084;2023-05-14T19:43:24;18.20;1.00
41987;DHT22;28361;50.740;7.084;2023-05-14T19:45:50;18.10;1.00
41987;DHT22;28361;50.740;7.084;2023-05-14T19:48:16;18.10;1.00
41987;DHT22;28361;50.740;7.084;2023-05-14T19:50:45;18.00;1.00
41987;DHT22;28361;50.740;7.084;2023-05-14T19:53:11;18.00;1.00
41987;DHT22;28361;50.740;7.084;2023-05-14T19:55:37;18.00;1.00
41987;DHT22;28361;50.740;7.084;2023-05-14T19:58:03;17.90;1.00
41987;DHT22;28361;50.740;7.084;2023-05-14T20:00:28;17.90;1.00
41987;DHT22;28361;50.740;7.084;2023-05-14T20:02:54;17.80;1.00
41987;DHT22;28361;50.740;7.084;2023-05-14T20:05:24;17.60;1.00
41987;DHT22;28361;50.740;7.084;2023-05-14T20:07:50;17.70;1.00
41987;DHT22;28361;50.740;7.084;2023-05-14T20:10:16;17.50;1.00
41987;DHT22;28361;50.740;7.084;2023-05-14T20:12:41;17.50;1.00
41987;DHT22;28361;50.740;7.084;2023-05-14T20:15:07;17.40;1.00
41987;DHT22;28361;50.740;7.084;2023-05-14T20:17:33;17.30;1.00
41987;DHT22;28361;50.740;7.084;2023-05-14T20:19:59;17.30;1.00
41987;DHT22;28361;50.740;7.084;2023-05-14T20:22:25;17.20;1.00
41987;DHT22;28361;50.740;7.084;2023-05-14T20:24:51;17.20;1.00
41987;DHT22;28361;50.740;7.084;2023-05-14T20:27:17;17.10;1.00
41987;DHT22;28361;50.740;7.084;2023-05-14T20:29:42;17.10;1.00
41987;DHT22;28361;50.740;7.084;2023-05-14T20:32:08;17.10;1.00
41987;DHT22;28361;50.740;7.084;2023-05-14T20:34:34;17.00;1.00
41987;DHT22;28361;50.740;7.084;2023-05-14T20:37:00;17.00;1.00
41987;DHT22;28361;50.740;7.084;2023-05-14T20:39:25;16.90;1.00
41987;DHT22;28361;50.740;7.084;2023-05-14T20:41:51;16.90;1.00
41987;DHT22;28361;50.740;7.084;2023-05-14T20:44:17;16.90;1.00
41987;DHT22;28361;50.740;7.084;2023-05-14T20:46:42;16.90;1.00
41987;DHT22;28361;50.740;7.084;2023-05-14T20:49:08;16.90;1.00
41987;DHT22;28361;50.740;7.084;2023-05-14T20:51:34;16.90;4.80
41987;DHT22;28361;50.740;7.084;2023-05-14T20:53:59;16.90;3.40
41987;DHT22;28361;50.740;7.084;2023-05-14T20:56:25;16.80;16.00
41987;DHT22;28361;50.740;7.084;2023-05-14T20:58:51;16.80;1.00
41987;DHT22;28361;50.740;7.084;2023-05-14T21:01:17;16.90;1.00
41987;DHT22;28361;50.740;7.084;2023-05-14T21:03:42;16.90;1.00
41987;DHT22;28361;50.740;7.084;2023-05-14T21:06:08;16.90;1.00
41987;DHT22;28361;50.740;7.084;2023-05-14T21:08:34;16.80;1.00
41987;DHT22;28361;50.740;7.084;2023-05-14T21:11:02;16.70;1.00
41987;DHT22;28361;50.740;7.084;2023-05-14T21:13:27;16.60;1.00
41987;DHT22;28361;50.740;7.084;2023-05-14T21:15:53;16.50;1.00
41987;DHT22;28361;50.740;7.084;2023-05-14T21:18:18;16.40;1.00
41987;DHT22;28361;50.740;7.084;2023-05-14T21:20:44;16.40;1.40
41987;DHT22;28361;50.740;7.084;2023-05-14T21:23:10;16.30;4.60
41987;DHT22;28361;50.740;7.084;2023-05-14T21:25:35;16.30;8.20
41987;DHT22;28361;50.740;7.084;2023-05-14T21:28:01;16.30;14.00
41987;DHT22;28361;50.740;7.084;2023-05-14T21:30:26;16.30;18.80
41987;DHT22;28361;50.740;7.084;2023-05-14T21:32:52;16.20;22.50
41987;DHT22;28361;50.740;7.084;2023-05-14T21:35:18;16.20;31.10
41987;DHT22;28361;50.740;7.084;2023-05-14T21:37:43;16.10;29.00
41987;DHT22;28361;50.740;7.084;2023-05-14T21:40:09;16.10;43.20
41987;DHT22;28361;50.740;7.084;2023-05-14T21:42:37;16.10;55.40
41987;DHT22;28361;50.740;7.084;2023-05-14T21:45:04;16.00;57.10
41987;DHT22;28361;50.740;7.084;2023-05-14T21:47:30;16.00;57.30
41987;DHT22;28361;50.740;7.084;2023-05-14T21:49:56;16.00;90.10
41987;DHT22;28361;50.740;7.084;2023-05-14T21:52:22;16.00;85.50
41987;DHT22;28361;50.740;7.084;2023-05-14T21:54:47;16.10;87.00
41987;DHT22;28361;50.740;7.084;2023-05-14T21:57:13;16.00;86.30
41987;DHT22;28361;50.740;7.084;2023-05-14T21:59:39;16.10;90.80
41987;DHT22;28361;50.740;7.084;2023-05-14T22:02:05;16.10;88.80
41987;DHT22;28361;50.740;7.084;2023-05-14T22:04:31;16.00;90.20
41987;DHT22;28361;50.740;7.084;2023-05-14T22:06:57;16.00;91.90
41987;DHT22;28361;50.740;7.084;2023-05-14T22:09:22;16.10;92.30
41987;DHT22;28361;50.740;7.084;2023-05-14T22:11:48;16.00;94.10
41987;DHT22;28361;50.740;7.084;2023-05-14T22:14:14;16.00;94.60
41987;DHT22;28361;50.740;7.084;2023-05-14T22:16:39;16.00;94.60
41987;DHT22;28361;50.740;7.084;2023-05-14T22:19:05;16.00;95.70
41987;DHT22;28361;50.740;7.084;2023-05-14T22:21:30;16.00;97.00
41987;DHT22;28361;50.740;7.084;2023-05-14T22:23:56;16.00;95.70
41987;DHT22;28361;50.740;7.084;2023-05-14T22:26:22;15.90;96.10
41987;DHT22;28361;50.740;7.084;2023-05-14T22:28:48;15.90;93.60
41987;DHT22;28361;50.740;7.084;2023-05-14T22:31:14;15.90;96.00
41987;DHT22;28361;50.740;7.084;2023-05-14T22:33:40;15.90;97.30
41987;DHT22;28361;50.740;7.084;2023-05-14T22:36:06;15.90;97.20
41987;DHT22;28361;50.740;7.084;2023-05-14T22:38:32;15.90;99.90
41987;DHT22;28361;50.740;7.084;2023-05-14T22:40:58;15.90;99.90
41987;DHT22;28361;50.740;7.084;2023-05-14T22:43:24;15.90;99.90
41987;DHT22;28361;50.740;7.084;2023-05-14T22:45:50;15.90;99.90
41987;DHT22;28361;50.740;7.084;2023-05-14T22:48:16;15.90;99.90
41987;DHT22;28361;50.740;7.084;2023-05-14T22:50:42;15.90;99.90
41987;DHT22;28361;50.740;7.084;2023-05-14T22:53:08;15.80;99.90
41987;DHT22;28361;50.740;7.084;2023-05-14T22:55:33;15.80;99.90
41987;DHT22;28361;50.740;7.084;2023-05-14T22:57:59;15.70;99.90
41987;DHT22;28361;50.740;7.084;2023-05-14T23:00:25;15.70;99.90
41987;DHT22;28361;50.740;7.084;2023-05-14T23:02:50;15.60;99.90
41987;DHT22;28361;50.740;7.084;2023-05-14T23:05:16;15.50;99.90
41987;DHT22;28361;50.740;7.084;2023-05-14T23:07:42;15.50;99.90
41987;DHT22;28361;50.740;7.084;2023-05-14T23:10:08;15.50;99.90
41987;DHT22;28361;50.740;7.084;2023-05-14T23:12:34;15.40;99.90
41987;DHT22;28361;50.740;7.084;2023-05-14T23:14:59;15.40;99.90
41987;DHT22;28361;50.740;7.084;2023-05-14T23:17:25;15.40;99.90
41987;DHT22;28361;50.740;7.084;2023-05-14T23:19:51;15.30;99.90
41987;DHT22;28361;50.740;7.084;2023-05-14T23:22:17;15.30;99.90
41987;DHT22;28361;50.740;7.084;2023-05-14T23:24:42;15.30;99.90
41987;DHT22;28361;50.740;7.084;2023-05-14T23:27:09;15.20;99.90
41987;DHT22;28361;50.740;7.084;2023-05-14T23:29:35;15.20;99.90
41987;DHT22;28361;50.740;7.084;2023-05-14T23:32:01;15.20;99.90
41987;DHT22;28361;50.740;7.084;2023-05-14T23:34:26;15.20;99.90
41987;DHT22;28361;50.740;7.084;2023-05-14T23:36:52;15.20;99.90
41987;DHT22;28361;50.740;7.084;2023-05-14T23:39:18;15.10;99.90
41987;DHT22;28361;50.740;7.084;2023-05-14T23:41:43;15.00;99.90
41987;DHT22;28361;50.740;7.084;2023-05-14T23:44:09;14.90;99.90
41987;DHT22;28361;50.740;7.084;2023-05-14T23:46:34;14.80;99.90
41987;DHT22;28361;50.740;7.084;2023-05-14T23:49:00;14.80;99.90
41987;DHT22;28361;50.740;7.084;2023-05-14T23:51:26;14.80;99.90
41987;DHT22;28361;50.740;7.084;2023-05-14T23:53:52;14.80;99.90
41987;DHT22;28361;50.740;7.084;2023-05-14T23:56:23;14.70;99.90
41987;DHT22;28361;50.740;7.084;2023-05-14T23:58:49;14.60;99.90
